createdAt,value
2022-11-04T00:00:30.098Z,21.10
2022-11-04T00:02:59.444Z,21.10
2022-11-04T00:05:29.167Z,21.10
2022-11-04T00:08:17.472Z,21.10
2022-11-04T00:11:05.832Z,21.10
2022-11-04T00:13:34.535Z,21.20
2022-11-04T00:16:23.337Z,21.30
2022-11-04T00:18:52.237Z,21.40
2022-11-04T00:21:40.846Z,21.40
2022-11-04T00:24:35.112Z,21.40
2022-11-04T00:27:23.739Z,21.50
2022-11-04T00:29:52.502Z,21.50
2022-11-04T00:32:40.950Z,21.60
2022-11-04T00:35:10.736Z,21.60
2022-11-04T00:37:42.220Z,21.60
2022-11-04T00:40:13.149Z,21.70
2022-11-04T00:42:43.967Z,21.70
2022-11-04T00:45:12.829Z,21.70
2022-11-04T00:47:41.595Z,21.80
2022-11-04T00:50:10.793Z,21.80
2022-11-04T00:52:39.482Z,21.80
2022-11-04T00:55:08.724Z,21.80
2022-11-04T00:57:37.796Z,21.80
2022-11-04T01:00:08.167Z,21.90
2022-11-04T01:02:37.006Z,21.90
2022-11-04T01:05:06.066Z,22.00
2022-11-04T01:07:37.343Z,22.00
2022-11-04T01:10:09.068Z,22.10
2022-11-04T01:12:38.152Z,22.10
2022-11-04T01:15:07.439Z,22.20
2022-11-04T01:17:36.177Z,22.30
2022-11-04T01:20:05.041Z,22.30
2022-11-04T01:22:33.770Z,22.40
2022-11-04T01:25:02.576Z,22.50
2022-11-04T01:27:31.317Z,22.50
2022-11-04T01:30:00.234Z,22.60
2022-11-04T01:32:30.006Z,22.60
2022-11-04T01:34:58.751Z,22.70
2022-11-04T01:37:28.096Z,22.70
2022-11-04T01:39:57.108Z,22.70
2022-11-04T01:42:26.086Z,22.70
2022-11-04T01:44:59.188Z,22.80
2022-11-04T01:47:41.025Z,22.90
2022-11-04T01:50:16.081Z,22.90
2022-11-04T01:52:52.551Z,23.00
2022-11-04T01:55:28.901Z,23.00
2022-11-04T01:58:02.298Z,23.10
2022-11-04T02:00:31.637Z,23.10
2022-11-04T02:03:07.426Z,23.20
2022-11-04T02:05:36.543Z,23.30
2022-11-04T02:08:08.263Z,23.40
2022-11-04T02:10:39.290Z,23.50
2022-11-04T02:13:08.456Z,23.50
2022-11-04T02:15:45.186Z,23.50
2022-11-04T02:18:37.826Z,23.60
2022-11-04T02:21:08.478Z,23.70
2022-11-04T02:24:03.253Z,23.70
2022-11-04T02:27:06.954Z,23.80
2022-11-04T02:29:43.276Z,23.80
2022-11-04T02:32:22.934Z,23.90
2022-11-04T02:35:15.636Z,24.00
2022-11-04T02:37:57.398Z,24.00
2022-11-04T02:40:51.502Z,24.00
2022-11-04T02:43:25.683Z,24.00
2022-11-04T02:46:01.596Z,24.10
2022-11-04T02:48:54.685Z,24.10
2022-11-04T02:51:31.021Z,24.20
2022-11-04T02:54:04.616Z,24.30
2022-11-04T02:56:36.123Z,24.30
2022-11-04T02:59:09.076Z,24.40
2022-11-04T03:01:38.950Z,24.50
2022-11-04T03:04:15.801Z,24.50
2022-11-04T03:06:48.478Z,24.60
2022-11-04T03:09:18.462Z,24.60
2022-11-04T03:11:53.347Z,24.70
2022-11-04T03:14:28.968Z,24.80
2022-11-04T03:17:02.810Z,24.90
2022-11-04T03:19:39.272Z,25.00
2022-11-04T03:22:16.885Z,25.10
2022-11-04T03:24:47.509Z,25.10
2022-11-04T03:27:26.537Z,25.20
2022-11-04T03:30:04.116Z,25.30
2022-11-04T03:32:54.094Z,25.30
2022-11-04T03:35:23.310Z,25.40
2022-11-04T03:37:52.250Z,25.40
2022-11-04T03:40:23.547Z,25.50
2022-11-04T03:43:00.713Z,25.60
2022-11-04T03:45:29.874Z,25.60
2022-11-04T03:47:59.451Z,25.70
2022-11-04T03:50:32.249Z,25.70
2022-11-04T03:53:01.408Z,25.80
2022-11-04T03:55:50.447Z,25.90
2022-11-04T03:58:46.751Z,25.90
2022-11-04T04:01:31.699Z,25.90
2022-11-04T04:04:21.741Z,26.10
2022-11-04T04:06:55.133Z,26.10
2022-11-04T04:09:31.708Z,26.20
2022-11-04T04:12:09.511Z,26.20
2022-11-04T04:14:45.239Z,26.30
2022-11-04T04:17:37.738Z,26.40
2022-11-04T04:20:14.722Z,26.40
2022-11-04T04:22:50.552Z,26.50
2022-11-04T04:25:44.711Z,26.60
2022-11-04T04:28:17.129Z,26.60
2022-11-04T04:30:48.414Z,26.70
2022-11-04T04:33:20.288Z,26.70
2022-11-04T04:35:56.702Z,26.70
2022-11-04T04:38:49.095Z,26.80
2022-11-04T04:41:42.877Z,26.90
2022-11-04T04:44:38.054Z,26.90
2022-11-04T04:47:08.271Z,26.90
2022-11-04T04:49:37.197Z,26.90
2022-11-04T04:52:08.992Z,26.90
2022-11-04T04:54:37.723Z,27.00
2022-11-04T04:57:06.447Z,27.00
2022-11-04T04:59:35.785Z,27.00
2022-11-04T05:02:05.089Z,27.00
2022-11-04T05:04:33.933Z,27.10
2022-11-04T05:07:03.595Z,27.10
2022-11-04T05:09:32.256Z,27.10
2022-11-04T05:12:01.101Z,27.20
2022-11-04T05:14:31.023Z,27.20
2022-11-04T05:17:00.014Z,27.20
2022-11-04T05:19:28.859Z,27.20
2022-11-04T05:21:58.024Z,27.30
2022-11-04T05:24:27.538Z,27.30
2022-11-04T05:26:56.421Z,27.30
2022-11-04T05:29:25.132Z,27.30
2022-11-04T05:31:53.868Z,27.30
2022-11-04T05:34:22.663Z,27.30
2022-11-04T05:36:52.031Z,27.40
2022-11-04T05:39:20.811Z,27.40
2022-11-04T05:41:49.668Z,27.50
2022-11-04T05:44:18.453Z,27.60
2022-11-04T05:46:47.231Z,27.60
2022-11-04T05:49:16.006Z,27.60
2022-11-04T05:51:45.516Z,27.70
2022-11-04T05:54:14.801Z,27.70
2022-11-04T05:56:43.660Z,27.70
2022-11-04T05:59:12.405Z,27.80
2022-11-04T06:01:44.064Z,27.90
2022-11-04T06:04:18.952Z,27.90
2022-11-04T06:06:47.970Z,27.90
2022-11-04T06:09:16.793Z,27.90
2022-11-04T06:11:46.364Z,27.90
2022-11-04T06:14:18.788Z,27.90
2022-11-04T06:16:47.757Z,28.00
2022-11-04T06:19:16.628Z,28.00
2022-11-04T06:21:45.374Z,28.00
2022-11-04T06:24:14.257Z,27.90
2022-11-04T06:26:43.234Z,28.00
2022-11-04T06:29:11.947Z,28.00
2022-11-04T06:31:40.743Z,28.00
2022-11-04T06:34:09.517Z,28.10
2022-11-04T06:36:38.308Z,28.10
2022-11-04T06:39:07.148Z,28.10
2022-11-04T06:41:36.030Z,28.10
2022-11-04T06:44:04.836Z,28.20
2022-11-04T06:46:41.136Z,28.20
2022-11-04T06:49:15.473Z,28.20
2022-11-04T06:51:44.950Z,28.30
2022-11-04T06:54:14.364Z,28.30
2022-11-04T06:56:43.845Z,28.40
2022-11-04T06:59:21.851Z,28.30
2022-11-04T07:01:53.139Z,28.30
2022-11-04T07:04:22.766Z,28.30
2022-11-04T07:06:51.539Z,28.30
2022-11-04T07:09:20.309Z,28.30
2022-11-04T07:11:49.587Z,28.30
2022-11-04T07:14:18.300Z,28.30
2022-11-04T07:16:47.117Z,28.30
2022-11-04T07:19:16.187Z,28.30
2022-11-04T07:21:45.201Z,28.30
2022-11-04T07:24:13.902Z,28.30
2022-11-04T07:26:43.575Z,28.30
2022-11-04T07:29:12.406Z,28.30
2022-11-04T07:31:41.156Z,28.30
2022-11-04T07:34:10.597Z,28.40
2022-11-04T07:36:39.397Z,28.40
2022-11-04T07:39:08.625Z,28.50
2022-11-04T07:41:37.450Z,28.50
2022-11-04T07:44:07.358Z,28.50
2022-11-04T07:46:36.105Z,28.60
2022-11-04T07:49:05.202Z,28.60
2022-11-04T07:51:34.107Z,28.50
2022-11-04T07:54:03.004Z,28.50
2022-11-04T07:56:31.777Z,28.50
2022-11-04T07:59:01.155Z,28.40
2022-11-04T08:01:29.934Z,28.40
2022-11-04T08:04:02.268Z,28.40
2022-11-04T08:06:33.275Z,28.40
2022-11-04T08:09:02.167Z,28.50
2022-11-04T08:11:30.947Z,28.40
2022-11-04T08:13:59.691Z,28.50
2022-11-04T08:16:33.950Z,28.50
2022-11-04T08:19:03.518Z,28.50
2022-11-04T08:21:34.084Z,28.50
2022-11-04T08:24:07.056Z,28.40
2022-11-04T08:26:35.871Z,28.40
2022-11-04T08:29:09.280Z,28.40
2022-11-04T08:31:38.382Z,28.50
2022-11-04T08:34:09.755Z,28.40
2022-11-04T08:37:00.011Z,28.50
2022-11-04T08:39:29.210Z,28.40
2022-11-04T08:41:58.774Z,28.40
2022-11-04T08:44:27.712Z,28.40
2022-11-04T08:46:56.511Z,28.40
2022-11-04T08:49:25.250Z,28.30
2022-11-04T08:52:02.533Z,28.30
2022-11-04T08:54:31.450Z,28.30
2022-11-04T08:57:01.114Z,28.20
2022-11-04T08:59:31.126Z,28.20
2022-11-04T09:01:59.922Z,28.20
2022-11-04T09:04:28.781Z,28.20
2022-11-04T09:06:59.304Z,28.20
2022-11-04T09:09:28.726Z,28.10
2022-11-04T09:11:57.571Z,28.10
2022-11-04T09:14:26.657Z,28.10
2022-11-04T09:16:56.842Z,28.10
2022-11-04T09:19:25.710Z,28.10
2022-11-04T09:21:54.750Z,28.10
2022-11-04T09:24:24.185Z,28.10
2022-11-04T09:26:53.081Z,28.10
2022-11-04T09:29:21.810Z,28.10
2022-11-04T09:31:51.294Z,28.10
2022-11-04T09:34:22.868Z,28.10
2022-11-04T09:36:51.558Z,28.10
2022-11-04T09:39:20.448Z,28.10
2022-11-04T09:42:19.095Z,28.00
2022-11-04T09:45:26.530Z,28.00
2022-11-04T09:47:59.838Z,27.90
2022-11-04T09:50:33.233Z,27.90
2022-11-04T09:53:10.222Z,27.80
2022-11-04T09:56:05.295Z,27.80
2022-11-04T09:58:39.658Z,27.70
2022-11-04T10:01:47.912Z,27.70
2022-11-04T10:04:52.158Z,27.60
2022-11-04T10:07:28.871Z,27.60
2022-11-04T10:10:02.888Z,27.50
2022-11-04T10:12:55.780Z,27.50
2022-11-04T10:15:32.775Z,27.50
2022-11-04T10:18:18.986Z,27.40
2022-11-04T10:21:08.922Z,27.40
2022-11-04T10:23:47.346Z,27.30
2022-11-04T10:26:29.321Z,27.20
2022-11-04T10:29:05.707Z,27.10
2022-11-04T10:31:38.005Z,26.90
2022-11-04T10:34:14.128Z,26.80
2022-11-04T10:36:43.744Z,26.70
2022-11-04T10:39:28.359Z,26.60
2022-11-04T10:41:59.185Z,26.50
2022-11-04T10:44:31.249Z,26.40
2022-11-04T10:47:01.860Z,26.30
2022-11-04T10:49:39.061Z,26.20
2022-11-04T10:52:09.747Z,26.20
2022-11-04T10:54:49.227Z,26.20
2022-11-04T10:57:23.047Z,26.10
2022-11-04T10:59:55.711Z,26.10
2022-11-04T11:02:41.852Z,26.10
2022-11-04T11:05:26.864Z,26.00
2022-11-04T11:07:59.263Z,26.00
2022-11-04T11:10:31.948Z,25.90
2022-11-04T11:13:04.498Z,25.90
2022-11-04T11:15:36.581Z,25.80
2022-11-04T11:18:11.298Z,25.80
2022-11-04T11:20:41.970Z,25.80
2022-11-04T11:23:38.625Z,25.70
2022-11-04T11:26:13.691Z,25.60
2022-11-04T11:28:43.257Z,25.60
2022-11-04T11:31:24.377Z,25.60
2022-11-04T11:33:57.240Z,25.50
2022-11-04T11:36:27.447Z,25.50
2022-11-04T11:39:06.836Z,25.50
2022-11-04T11:41:53.474Z,25.40
2022-11-04T11:44:45.435Z,25.40
2022-11-04T11:47:23.691Z,25.30
2022-11-04T11:50:16.910Z,25.20
2022-11-04T11:52:46.144Z,25.20
2022-11-04T11:55:21.929Z,25.10
2022-11-04T12:01:23.926Z,25.10
2022-11-04T12:09:43.668Z,25.00
2022-11-04T12:12:17.887Z,25.10
2022-11-04T12:15:13.652Z,25.10
2022-11-04T12:17:52.897Z,25.00
2022-11-04T12:21:01.804Z,25.00
2022-11-04T12:23:38.118Z,25.00
2022-11-04T12:26:07.826Z,24.90
2022-11-04T12:28:50.717Z,24.90
2022-11-04T12:31:35.243Z,24.90
2022-11-04T12:34:38.750Z,24.90
2022-11-04T12:37:23.088Z,24.80
2022-11-04T12:40:05.918Z,24.80
2022-11-04T12:42:42.829Z,24.80
2022-11-04T12:45:19.958Z,24.80
2022-11-04T12:47:50.178Z,24.80
2022-11-04T12:50:41.875Z,24.80
2022-11-04T12:53:44.051Z,24.80
2022-11-04T12:56:15.529Z,24.80
2022-11-04T12:59:02.559Z,24.80
2022-11-04T13:01:40.507Z,24.80
2022-11-04T13:04:21.481Z,24.80
2022-11-04T13:06:56.401Z,24.80
2022-11-04T13:09:34.011Z,24.80
2022-11-04T13:12:16.369Z,24.70
2022-11-04T13:15:08.964Z,24.60
2022-11-04T13:17:41.059Z,24.60
2022-11-04T13:20:15.343Z,24.60
2022-11-04T13:22:50.127Z,24.60
2022-11-04T13:25:26.746Z,24.60
2022-11-04T13:27:55.840Z,24.60
2022-11-04T13:30:36.421Z,24.50
2022-11-04T13:33:26.262Z,24.50
2022-11-04T13:35:59.264Z,24.40
2022-11-04T13:38:42.775Z,24.40
2022-11-04T13:41:23.547Z,24.40
2022-11-04T13:44:04.258Z,24.40
2022-11-04T13:46:35.657Z,24.40
2022-11-04T13:49:15.511Z,24.40
2022-11-04T13:51:47.236Z,24.40
2022-11-04T13:54:37.453Z,24.30
2022-11-04T13:57:10.082Z,24.30
2022-11-04T13:59:39.515Z,24.30
2022-11-04T14:02:26.949Z,24.30
2022-11-04T14:04:57.215Z,24.20
2022-11-04T14:08:02.671Z,24.20
2022-11-04T14:10:51.783Z,24.20
2022-11-04T14:13:39.920Z,24.20
2022-11-04T14:16:28.695Z,24.20
2022-11-04T14:18:57.509Z,24.10
2022-11-04T14:21:30.454Z,24.10
2022-11-04T14:24:02.368Z,24.10
2022-11-04T14:26:44.186Z,24.00
2022-11-04T14:29:29.028Z,24.10
2022-11-04T14:32:01.513Z,24.00
2022-11-04T14:34:37.538Z,24.00
2022-11-04T14:37:23.369Z,24.00
2022-11-04T14:40:02.871Z,24.00
2022-11-04T14:42:51.624Z,24.00
2022-11-04T14:45:25.616Z,24.00
2022-11-04T14:48:01.615Z,24.00
2022-11-04T14:50:30.772Z,24.00
2022-11-04T14:53:03.391Z,24.00
2022-11-04T14:55:33.797Z,23.90
2022-11-04T14:58:24.399Z,23.90
2022-11-04T15:00:57.162Z,23.90
2022-11-04T15:06:40.577Z,23.90
2022-11-04T15:09:30.533Z,23.90
2022-11-04T15:12:33.981Z,23.90
2022-11-04T15:15:02.848Z,23.90
2022-11-04T15:17:34.877Z,24.00
2022-11-04T15:20:05.686Z,24.00
2022-11-04T15:22:34.388Z,24.00
2022-11-04T15:25:06.839Z,24.00
2022-11-04T15:27:37.047Z,24.00
2022-11-04T15:30:20.488Z,24.00
2022-11-04T15:33:05.427Z,24.00
2022-11-04T15:35:35.350Z,23.90
2022-11-04T15:38:04.887Z,23.80
2022-11-04T15:40:36.828Z,23.80
2022-11-04T15:43:07.817Z,23.80
2022-11-04T15:45:52.306Z,23.80
2022-11-04T15:48:27.342Z,23.80
2022-11-04T15:51:01.405Z,23.70
2022-11-04T15:53:30.185Z,23.70
2022-11-04T15:55:58.962Z,23.70
2022-11-04T15:58:28.930Z,23.70
2022-11-04T16:00:58.092Z,23.70
2022-11-04T16:03:27.002Z,23.70
2022-11-04T16:06:07.879Z,23.70
2022-11-04T16:08:36.764Z,23.60
2022-11-04T16:11:16.250Z,23.60
2022-11-04T16:13:46.012Z,23.60
2022-11-04T16:16:25.263Z,23.60
2022-11-04T16:18:56.968Z,23.60
2022-11-04T16:21:31.684Z,23.60
2022-11-04T16:24:03.593Z,23.60
2022-11-04T16:26:42.488Z,23.60
2022-11-04T16:29:19.767Z,23.50
2022-11-04T16:32:05.459Z,23.50
2022-11-04T16:34:34.250Z,23.50
2022-11-04T16:37:04.200Z,23.40
2022-11-04T16:39:33.657Z,23.40
2022-11-04T16:42:02.561Z,23.40
2022-11-04T16:44:31.415Z,23.30
2022-11-04T16:47:03.050Z,23.30
2022-11-04T16:49:32.006Z,23.30
2022-11-04T16:52:04.260Z,23.30
2022-11-04T16:54:33.028Z,23.40
2022-11-04T16:57:04.011Z,23.40
2022-11-04T17:03:27.948Z,23.40
2022-11-04T17:05:58.808Z,23.40
2022-11-04T17:08:28.470Z,23.40
2022-11-04T17:10:57.265Z,23.40
2022-11-04T17:13:26.093Z,23.40
2022-11-04T17:15:55.506Z,23.40
2022-11-04T17:18:24.486Z,23.30
2022-11-04T17:20:55.941Z,23.30
2022-11-04T17:23:25.685Z,23.30
2022-11-04T17:25:55.314Z,23.30
2022-11-04T17:28:24.307Z,23.30
2022-11-04T17:30:53.353Z,23.40
2022-11-04T17:33:22.310Z,23.40
2022-11-04T17:35:52.311Z,23.40
2022-11-04T17:38:21.474Z,23.40
2022-11-04T17:41:09.817Z,23.40
2022-11-04T17:43:58.138Z,23.40
2022-11-04T17:46:46.570Z,23.40
2022-11-04T17:49:17.956Z,23.40
2022-11-04T17:51:52.486Z,23.40
2022-11-04T17:54:22.529Z,23.40
2022-11-04T17:56:52.082Z,23.30
2022-11-04T17:59:21.398Z,23.30
2022-11-04T18:01:50.803Z,23.30
2022-11-04T18:04:22.775Z,23.30
2022-11-04T18:06:54.299Z,23.30
2022-11-04T18:09:24.827Z,23.30
2022-11-04T18:12:13.097Z,23.30
2022-11-04T18:14:45.853Z,23.30
2022-11-04T18:17:14.661Z,23.20
2022-11-04T18:19:43.838Z,23.20
2022-11-04T18:22:12.543Z,23.20
2022-11-04T18:24:41.898Z,23.20
2022-11-04T18:27:11.674Z,23.10
2022-11-04T18:29:40.402Z,23.10
2022-11-04T18:32:09.397Z,23.10
2022-11-04T18:34:38.252Z,23.10
2022-11-04T18:37:07.119Z,23.10
2022-11-04T18:39:35.896Z,23.10
2022-11-04T18:42:04.693Z,23.10
2022-11-04T18:44:34.026Z,23.10
2022-11-04T18:47:02.961Z,23.10
2022-11-04T18:49:31.793Z,23.10
2022-11-04T18:52:01.257Z,23.10
2022-11-04T18:54:30.047Z,23.10
2022-11-04T18:56:58.773Z,23.10
2022-11-04T18:59:27.563Z,23.20
2022-11-04T19:01:56.507Z,23.20
2022-11-04T19:04:25.316Z,23.20
2022-11-04T19:06:54.050Z,23.30
2022-11-04T19:12:32.537Z,23.30
2022-11-04T19:15:01.382Z,23.30
2022-11-04T19:17:30.044Z,23.30
2022-11-04T19:19:59.224Z,23.30
2022-11-04T19:22:28.195Z,23.30
2022-11-04T19:24:56.898Z,23.30
2022-11-04T19:27:25.965Z,23.30
2022-11-04T19:29:55.048Z,23.30
2022-11-04T19:32:23.752Z,23.20
2022-11-04T19:34:52.466Z,23.10
2022-11-04T19:37:21.268Z,23.10
2022-11-04T19:39:49.975Z,23.10
2022-11-04T19:42:38.297Z,23.10
2022-11-04T19:45:07.455Z,23.10
2022-11-04T19:47:36.255Z,23.10
2022-11-04T19:50:05.541Z,23.00
2022-11-04T19:52:34.266Z,23.00
2022-11-04T19:55:03.092Z,23.00
2022-11-04T19:57:32.747Z,23.00
2022-11-04T20:00:01.456Z,23.00
2022-11-04T20:02:30.343Z,23.00
2022-11-04T20:04:59.156Z,23.10
2022-11-04T20:07:27.867Z,23.10
2022-11-04T20:09:56.780Z,23.10
2022-11-04T20:12:45.041Z,23.10
2022-11-04T20:15:13.833Z,23.10
2022-11-04T20:17:42.644Z,23.10
2022-11-04T20:20:11.381Z,23.10
2022-11-04T20:22:40.142Z,23.20
2022-11-04T20:25:09.274Z,23.10
2022-11-04T20:27:38.573Z,23.20
2022-11-04T20:30:08.006Z,23.10
2022-11-04T20:32:36.863Z,23.10
2022-11-04T20:35:05.832Z,23.10
2022-11-04T20:37:34.572Z,23.10
2022-11-04T20:40:03.374Z,23.10
2022-11-04T20:42:33.405Z,23.00
2022-11-04T20:45:02.149Z,23.00
2022-11-04T20:47:32.189Z,23.00
2022-11-04T20:50:01.763Z,23.00
2022-11-04T20:52:31.359Z,22.90
2022-11-04T20:55:00.083Z,22.90
2022-11-04T20:57:28.896Z,22.80
2022-11-04T20:59:58.422Z,22.90
2022-11-04T21:02:27.632Z,22.90
2022-11-04T21:04:56.390Z,22.80
2022-11-04T21:07:25.487Z,22.80
2022-11-04T21:09:54.338Z,22.90
2022-11-04T21:12:23.054Z,22.80
2022-11-04T21:14:52.099Z,22.80
2022-11-04T21:17:20.788Z,22.80
2022-11-04T21:19:49.538Z,22.80
2022-11-04T21:22:18.198Z,22.80
2022-11-04T21:24:46.970Z,22.80
2022-11-04T21:27:15.743Z,22.80
2022-11-04T21:29:44.529Z,22.80
2022-11-04T21:32:13.224Z,22.80
2022-11-04T21:34:41.961Z,22.80
2022-11-04T21:37:10.642Z,22.80
2022-11-04T21:39:39.516Z,22.80
2022-11-04T21:42:08.479Z,22.80
2022-11-04T21:44:37.538Z,22.80
2022-11-04T21:47:06.298Z,22.80
2022-11-04T21:49:35.012Z,22.80
2022-11-04T21:52:03.783Z,22.80
2022-11-04T21:54:32.580Z,22.80
2022-11-04T21:57:01.319Z,22.80
2022-11-04T21:59:33.566Z,22.80
2022-11-04T22:02:02.374Z,22.80
2022-11-04T22:04:31.190Z,22.80
2022-11-04T22:06:59.917Z,22.80
2022-11-04T22:09:28.695Z,22.80
2022-11-04T22:11:57.457Z,22.80
2022-11-04T22:14:26.449Z,22.80
2022-11-04T22:16:55.294Z,22.80
2022-11-04T22:19:23.964Z,22.70
2022-11-04T22:21:53.020Z,22.70
2022-11-04T22:24:22.090Z,22.70
2022-11-04T22:26:51.252Z,22.70
2022-11-04T22:29:20.082Z,22.70
2022-11-04T22:31:48.786Z,22.70
2022-11-04T22:34:17.495Z,22.70
2022-11-04T22:36:46.276Z,22.70
2022-11-04T22:39:17.072Z,22.70
2022-11-04T22:41:47.253Z,22.70
2022-11-04T22:44:16.169Z,22.70
2022-11-04T22:46:44.856Z,22.70
2022-11-04T22:49:15.452Z,22.60
2022-11-04T22:51:44.208Z,22.70
2022-11-04T22:54:13.046Z,22.60
2022-11-04T22:56:41.940Z,22.60
2022-11-04T22:59:12.147Z,22.60
2022-11-04T23:01:41.837Z,22.60
2022-11-04T23:04:13.259Z,22.60
2022-11-04T23:06:42.517Z,22.60
2022-11-04T23:09:13.894Z,22.60
2022-11-04T23:12:02.515Z,22.60
2022-11-04T23:14:51.572Z,22.60
2022-11-04T23:17:43.044Z,22.60
2022-11-04T23:20:14.617Z,22.60
2022-11-04T23:23:03.489Z,22.60
2022-11-04T23:25:32.355Z,22.60
2022-11-04T23:28:20.641Z,22.60
2022-11-04T23:30:53.238Z,22.60
2022-11-04T23:33:41.556Z,22.60
2022-11-04T23:36:31.147Z,22.60
2022-11-04T23:38:59.831Z,22.60
2022-11-04T23:41:48.212Z,22.60
2022-11-04T23:44:36.487Z,22.60
2022-11-04T23:47:24.963Z,22.70
2022-11-04T23:50:13.313Z,22.60
2022-11-04T23:53:01.642Z,22.70
2022-11-04T23:55:50.048Z,22.70
2022-11-04T23:58:38.388Z,22.60
